sensor_id;sensor_type;location;lat;lon;timestamp;temperature;humidity
13850;DHT22;6995;52.618;13.488;2022-12-07T00:01:39;3.00;1.00
13850;DHT22;6995;52.618;13.488;2022-12-07T00:04:11;3.10;1.00
13850;DHT22;6995;52.618;13.488;2022-12-07T00:06:43;3.00;1.00
13850;DHT22;6995;52.618;13.488;2022-12-07T00:09:14;2.90;1.00
13850;DHT22;6995;52.618;13.488;2022-12-07T00:11:41;2.80;1.00
13850;DHT22;6995;52.618;13.488;2022-12-07T00:14:14;2.90;1.00
13850;DHT22;6995;52.618;13.488;2022-12-07T00:16:41;2.90;1.00
13850;DHT22;6995;52.618;13.488;2022-12-07T00:19:07;2.90;1.00
13850;DHT22;6995;52.618;13.488;2022-12-07T00:21:34;2.90;1.00
13850;DHT22;6995;52.618;13.488;2022-12-07T00:24:01;2.90;1.00
13850;DHT22;6995;52.618;13.488;2022-12-07T00:26:29;2.80;1.00
13850;DHT22;6995;52.618;13.488;2022-12-07T00:28:59;2.80;1.00
13850;DHT22;6995;52.618;13.488;2022-12-07T00:31:28;2.80;1.00
13850;DHT22;6995;52.618;13.488;2022-12-07T00:33:56;2.70;1.00
13850;DHT22;6995;52.618;13.488;2022-12-07T00:36:23;2.70;1.00
13850;DHT22;6995;52.618;13.488;2022-12-07T00:38:49;2.70;1.00
13850;DHT22;6995;52.618;13.488;2022-12-07T00:41:21;2.70;1.00
13850;DHT22;6995;52.618;13.488;2022-12-07T00:43:48;2.70;1.00
13850;DHT22;6995;52.618;13.488;2022-12-07T00:46:15;2.60;1.00
13850;DHT22;6995;52.618;13.488;2022-12-07T00:48:41;2.60;1.00
13850;DHT22;6995;52.618;13.488;2022-12-07T00:51:08;2.70;1.00
13850;DHT22;6995;52.618;13.488;2022-12-07T00:53:35;2.70;1.00
13850;DHT22;6995;52.618;13.488;2022-12-07T00:56:20;2.70;1.00
13850;DHT22;6995;52.618;13.488;2022-12-07T00:58:56;2.60;1.00
13850;DHT22;6995;52.618;13.488;2022-12-07T01:01:26;2.60;1.00
13850;DHT22;6995;52.618;13.488;2022-12-07T01:03:52;2.60;1.00
13850;DHT22;6995;52.618;13.488;2022-12-07T01:06:19;2.60;1.00
13850;DHT22;6995;52.618;13.488;2022-12-07T01:08:45;2.60;1.00
13850;DHT22;6995;52.618;13.488;2022-12-07T01:11:16;2.60;1.00
13850;DHT22;6995;52.618;13.488;2022-12-07T01:13:43;2.60;1.00
13850;DHT22;6995;52.618;13.488;2022-12-07T01:16:12;2.50;1.00
13850;DHT22;6995;52.618;13.488;2022-12-07T01:18:42;2.40;1.00
13850;DHT22;6995;52.618;13.488;2022-12-07T01:21:12;2.30;1.00
13850;DHT22;6995;52.618;13.488;2022-12-07T01:23:41;2.30;1.00
13850;DHT22;6995;52.618;13.488;2022-12-07T01:26:10;2.40;1.00
13850;DHT22;6995;52.618;13.488;2022-12-07T01:28:37;2.40;1.00
13850;DHT22;6995;52.618;13.488;2022-12-07T01:31:08;2.40;1.00
13850;DHT22;6995;52.618;13.488;2022-12-07T01:33:38;2.40;1.00
13850;DHT22;6995;52.618;13.488;2022-12-07T01:36:12;2.40;1.00
13850;DHT22;6995;52.618;13.488;2022-12-07T01:38:39;2.40;1.00
13850;DHT22;6995;52.618;13.488;2022-12-07T01:41:05;2.40;1.00
13850;DHT22;6995;52.618;13.488;2022-12-07T01:43:32;2.40;1.00
13850;DHT22;6995;52.618;13.488;2022-12-07T01:45:59;2.40;1.00
13850;DHT22;6995;52.618;13.488;2022-12-07T01:48:43;2.40;1.00
13850;DHT22;6995;52.618;13.488;2022-12-07T01:51:11;2.40;1.00
13850;DHT22;6995;52.618;13.488;2022-12-07T01:53:41;2.40;1.00
13850;DHT22;6995;52.618;13.488;2022-12-07T01:56:15;2.40;1.00
13850;DHT22;6995;52.618;13.488;2022-12-07T01:58:45;2.40;1.00
13850;DHT22;6995;52.618;13.488;2022-12-07T02:01:11;2.40;1.00
13850;DHT22;6995;52.618;13.488;2022-12-07T02:03:42;2.40;1.00
13850;DHT22;6995;52.618;13.488;2022-12-07T02:06:11;2.40;1.00
13850;DHT22;6995;52.618;13.488;2022-12-07T02:08:38;2.40;1.00
13850;DHT22;6995;52.618;13.488;2022-12-07T02:11:05;2.30;1.00
13850;DHT22;6995;52.618;13.488;2022-12-07T02:13:35;2.30;1.00
13850;DHT22;6995;52.618;13.488;2022-12-07T02:27:36;2.40;1.00
13850;DHT22;6995;52.618;13.488;2022-12-07T02:30:15;2.40;1.00
13850;DHT22;6995;52.618;13.488;2022-12-07T02:33:19;2.40;1.00
13850;DHT22;6995;52.618;13.488;2022-12-07T02:36:04;2.40;1.00
13850;DHT22;6995;52.618;13.488;2022-12-07T02:41:16;2.40;1.00
13850;DHT22;6995;52.618;13.488;2022-12-07T02:43:56;2.40;1.00
13850;DHT22;6995;52.618;13.488;2022-12-07T02:46:43;2.30;1.00
13850;DHT22;6995;52.618;13.488;2022-12-07T02:49:13;2.30;1.00
13850;DHT22;6995;52.618;13.488;2022-12-07T02:51:45;2.30;1.00
13850;DHT22;6995;52.618;13.488;2022-12-07T02:54:17;2.30;1.00
13850;DHT22;6995;52.618;13.488;2022-12-07T03:08:52;2.40;1.00
13850;DHT22;6995;52.618;13.488;2022-12-07T03:11:29;2.40;1.00
13850;DHT22;6995;52.618;13.488;2022-12-07T03:14:12;2.30;1.00
13850;DHT22;6995;52.618;13.488;2022-12-07T03:16:48;2.40;1.00
13850;DHT22;6995;52.618;13.488;2022-12-07T03:19:21;2.40;1.00
13850;DHT22;6995;52.618;13.488;2022-12-07T03:22:13;2.40;1.00
13850;DHT22;6995;52.618;13.488;2022-12-07T03:25:10;2.50;1.00
13850;DHT22;6995;52.618;13.488;2022-12-07T03:27:48;2.40;1.00
13850;DHT22;6995;52.618;13.488;2022-12-07T03:30:20;2.30;1.00
13850;DHT22;6995;52.618;13.488;2022-12-07T03:33:03;2.40;1.00
13850;DHT22;6995;52.618;13.488;2022-12-07T03:39:21;2.50;1.00
13850;DHT22;6995;52.618;13.488;2022-12-07T03:41:58;2.50;1.00
13850;DHT22;6995;52.618;13.488;2022-12-07T03:44:25;2.40;1.00
13850;DHT22;6995;52.618;13.488;2022-12-07T03:49:55;2.70;1.00
13850;DHT22;6995;52.618;13.488;2022-12-07T03:52:49;2.70;1.00
13850;DHT22;6995;52.618;13.488;2022-12-07T03:55:34;2.70;1.00
13850;DHT22;6995;52.618;13.488;2022-12-07T03:58:10;2.80;1.00
13850;DHT22;6995;52.618;13.488;2022-12-07T04:00:41;2.80;1.00
13850;DHT22;6995;52.618;13.488;2022-12-07T04:03:10;2.80;1.00
13850;DHT22;6995;52.618;13.488;2022-12-07T04:05:46;2.80;1.00
13850;DHT22;6995;52.618;13.488;2022-12-07T04:08:23;2.80;1.00
13850;DHT22;6995;52.618;13.488;2022-12-07T04:10:49;2.70;1.00
13850;DHT22;6995;52.618;13.488;2022-12-07T04:13:15;2.70;1.00
13850;DHT22;6995;52.618;13.488;2022-12-07T04:15:43;2.80;1.00
13850;DHT22;6995;52.618;13.488;2022-12-07T04:18:12;2.80;1.00
13850;DHT22;6995;52.618;13.488;2022-12-07T04:20:38;2.80;1.00
13850;DHT22;6995;52.618;13.488;2022-12-07T04:23:09;2.80;1.00
13850;DHT22;6995;52.618;13.488;2022-12-07T04:25:35;2.80;1.00
13850;DHT22;6995;52.618;13.488;2022-12-07T04:28:04;2.80;1.00
13850;DHT22;6995;52.618;13.488;2022-12-07T04:30:30;2.80;1.00
13850;DHT22;6995;52.618;13.488;2022-12-07T04:32:56;2.80;1.00
13850;DHT22;6995;52.618;13.488;2022-12-07T04:35:24;2.80;1.00
13850;DHT22;6995;52.618;13.488;2022-12-07T04:37:53;2.80;1.00
13850;DHT22;6995;52.618;13.488;2022-12-07T04:40:21;2.90;1.00
13850;DHT22;6995;52.618;13.488;2022-12-07T04:42:47;2.80;1.00
13850;DHT22;6995;52.618;13.488;2022-12-07T04:45:23;2.80;1.00
13850;DHT22;6995;52.618;13.488;2022-12-07T04:47:48;2.90;1.00
13850;DHT22;6995;52.618;13.488;2022-12-07T04:50:21;2.80;1.00
13850;DHT22;6995;52.618;13.488;2022-12-07T04:52:47;2.90;1.00
13850;DHT22;6995;52.618;13.488;2022-12-07T04:55:15;2.80;1.00
13850;DHT22;6995;52.618;13.488;2022-12-07T04:57:46;2.80;1.00
13850;DHT22;6995;52.618;13.488;2022-12-07T05:00:15;2.80;1.00
13850;DHT22;6995;52.618;13.488;2022-12-07T05:02:40;2.90;1.00
13850;DHT22;6995;52.618;13.488;2022-12-07T05:05:06;2.80;1.00
13850;DHT22;6995;52.618;13.488;2022-12-07T05:07:35;2.80;1.00
13850;DHT22;6995;52.618;13.488;2022-12-07T05:10:01;2.80;1.00
13850;DHT22;6995;52.618;13.488;2022-12-07T05:12:27;2.90;1.00
13850;DHT22;6995;52.618;13.488;2022-12-07T05:14:52;2.90;1.00
13850;DHT22;6995;52.618;13.488;2022-12-07T05:17:18;2.80;1.00
13850;DHT22;6995;52.618;13.488;2022-12-07T05:19:44;2.90;1.00
13850;DHT22;6995;52.618;13.488;2022-12-07T05:22:10;2.90;1.00
13850;DHT22;6995;52.618;13.488;2022-12-07T05:24:36;2.90;1.00
13850;DHT22;6995;52.618;13.488;2022-12-07T05:27:02;3.00;1.00
13850;DHT22;6995;52.618;13.488;2022-12-07T05:29:28;3.00;1.00
13850;DHT22;6995;52.618;13.488;2022-12-07T05:31:56;3.00;1.00
13850;DHT22;6995;52.618;13.488;2022-12-07T05:34:22;3.00;1.00
13850;DHT22;6995;52.618;13.488;2022-12-07T05:36:48;3.10;1.00
13850;DHT22;6995;52.618;13.488;2022-12-07T05:39:17;3.10;1.00
13850;DHT22;6995;52.618;13.488;2022-12-07T05:41:49;3.10;1.00
13850;DHT22;6995;52.618;13.488;2022-12-07T05:44:37;3.10;1.00
13850;DHT22;6995;52.618;13.488;2022-12-07T05:47:09;3.10;1.00
13850;DHT22;6995;52.618;13.488;2022-12-07T05:49:35;3.20;1.00
13850;DHT22;6995;52.618;13.488;2022-12-07T05:52:01;3.20;1.00
13850;DHT22;6995;52.618;13.488;2022-12-07T05:54:27;3.10;1.00
13850;DHT22;6995;52.618;13.488;2022-12-07T05:57:06;3.20;1.00
13850;DHT22;6995;52.618;13.488;2022-12-07T05:59:34;3.20;1.00
13850;DHT22;6995;52.618;13.488;2022-12-07T06:02:11;3.20;1.00
13850;DHT22;6995;52.618;13.488;2022-12-07T06:04:43;3.30;1.00
13850;DHT22;6995;52.618;13.488;2022-12-07T06:07:09;3.30;1.00
13850;DHT22;6995;52.618;13.488;2022-12-07T06:09:36;3.30;1.00
13850;DHT22;6995;52.618;13.488;2022-12-07T06:12:06;3.40;1.00
13850;DHT22;6995;52.618;13.488;2022-12-07T06:14:51;3.30;1.00
13850;DHT22;6995;52.618;13.488;2022-12-07T06:17:22;3.40;1.00
13850;DHT22;6995;52.618;13.488;2022-12-07T06:20:05;3.50;1.00
13850;DHT22;6995;52.618;13.488;2022-12-07T06:22:31;3.50;1.00
13850;DHT22;6995;52.618;13.488;2022-12-07T06:24:57;3.50;1.00
13850;DHT22;6995;52.618;13.488;2022-12-07T06:27:29;3.50;1.00
13850;DHT22;6995;52.618;13.488;2022-12-07T06:32:38;3.40;1.00
13850;DHT22;6995;52.618;13.488;2022-12-07T06:35:06;3.40;1.00
13850;DHT22;6995;52.618;13.488;2022-12-07T06:37:33;3.50;1.00
13850;DHT22;6995;52.618;13.488;2022-12-07T06:40:01;3.40;1.00
13850;DHT22;6995;52.618;13.488;2022-12-07T06:42:29;3.30;1.00
13850;DHT22;6995;52.618;13.488;2022-12-07T06:44:55;3.30;1.00
13850;DHT22;6995;52.618;13.488;2022-12-07T06:47:21;3.40;1.00
13850;DHT22;6995;52.618;13.488;2022-12-07T06:53:01;3.40;1.00
13850;DHT22;6995;52.618;13.488;2022-12-07T06:55:29;3.50;1.00
13850;DHT22;6995;52.618;13.488;2022-12-07T06:57:55;3.50;1.00
13850;DHT22;6995;52.618;13.488;2022-12-07T07:00:21;3.40;1.00
13850;DHT22;6995;52.618;13.488;2022-12-07T07:02:53;3.50;1.00
13850;DHT22;6995;52.618;13.488;2022-12-07T07:05:20;3.60;1.00
13850;DHT22;6995;52.618;13.488;2022-12-07T07:08:10;3.60;1.00
13850;DHT22;6995;52.618;13.488;2022-12-07T07:10:41;3.60;1.00
13850;DHT22;6995;52.618;13.488;2022-12-07T07:13:07;3.60;1.00
13850;DHT22;6995;52.618;13.488;2022-12-07T07:15:37;3.60;1.00
13850;DHT22;6995;52.618;13.488;2022-12-07T07:18:03;3.60;1.00
13850;DHT22;6995;52.618;13.488;2022-12-07T07:20:31;3.60;1.00
13850;DHT22;6995;52.618;13.488;2022-12-07T07:22:57;3.60;1.00
13850;DHT22;6995;52.618;13.488;2022-12-07T07:25:23;3.70;1.00
13850;DHT22;6995;52.618;13.488;2022-12-07T07:27:48;3.70;1.00
13850;DHT22;6995;52.618;13.488;2022-12-07T07:30:14;3.70;1.00
13850;DHT22;6995;52.618;13.488;2022-12-07T07:32:40;3.70;1.00
13850;DHT22;6995;52.618;13.488;2022-12-07T07:35:08;3.70;1.00
13850;DHT22;6995;52.618;13.488;2022-12-07T07:37:34;3.80;1.00
13850;DHT22;6995;52.618;13.488;2022-12-07T07:39:59;3.70;1.00
13850;DHT22;6995;52.618;13.488;2022-12-07T07:42:25;3.70;1.00
13850;DHT22;6995;52.618;13.488;2022-12-07T07:44:53;3.70;1.00
13850;DHT22;6995;52.618;13.488;2022-12-07T07:47:19;3.80;1.00
13850;DHT22;6995;52.618;13.488;2022-12-07T07:49:48;3.80;1.00
13850;DHT22;6995;52.618;13.488;2022-12-07T07:52:14;3.80;1.00
13850;DHT22;6995;52.618;13.488;2022-12-07T07:54:39;3.80;1.00
13850;DHT22;6995;52.618;13.488;2022-12-07T07:57:05;3.80;1.00
13850;DHT22;6995;52.618;13.488;2022-12-07T07:59:31;3.80;1.00
13850;DHT22;6995;52.618;13.488;2022-12-07T08:04:45;3.70;1.00
13850;DHT22;6995;52.618;13.488;2022-12-07T08:07:14;3.80;1.00
13850;DHT22;6995;52.618;13.488;2022-12-07T08:09:40;3.80;1.00
13850;DHT22;6995;52.618;13.488;2022-12-07T08:12:06;3.80;1.00
13850;DHT22;6995;52.618;13.488;2022-12-07T08:14:32;3.80;1.00
13850;DHT22;6995;52.618;13.488;2022-12-07T08:16:59;3.80;1.00
13850;DHT22;6995;52.618;13.488;2022-12-07T08:19:25;3.70;1.00
13850;DHT22;6995;52.618;13.488;2022-12-07T08:21:51;3.80;1.00
13850;DHT22;6995;52.618;13.488;2022-12-07T08:24:16;3.70;1.00
13850;DHT22;6995;52.618;13.488;2022-12-07T08:26:42;3.80;1.00
13850;DHT22;6995;52.618;13.488;2022-12-07T08:29:08;3.80;1.00
13850;DHT22;6995;52.618;13.488;2022-12-07T08:31:34;3.80;1.00
13850;DHT22;6995;52.618;13.488;2022-12-07T08:34:00;3.80;1.00
13850;DHT22;6995;52.618;13.488;2022-12-07T08:36:26;3.80;1.00
13850;DHT22;6995;52.618;13.488;2022-12-07T08:38:52;3.80;1.00
13850;DHT22;6995;52.618;13.488;2022-12-07T08:41:17;3.80;1.00
13850;DHT22;6995;52.618;13.488;2022-12-07T08:43:43;3.80;1.00
13850;DHT22;6995;52.618;13.488;2022-12-07T08:46:13;3.80;1.00
13850;DHT22;6995;52.618;13.488;2022-12-07T08:49:04;3.80;1.00
13850;DHT22;6995;52.618;13.488;2022-12-07T08:51:30;3.80;1.00
13850;DHT22;6995;52.618;13.488;2022-12-07T08:53:58;3.80;1.00
13850;DHT22;6995;52.618;13.488;2022-12-07T08:56:26;3.80;1.00
13850;DHT22;6995;52.618;13.488;2022-12-07T08:58:52;3.90;1.00
13850;DHT22;6995;52.618;13.488;2022-12-07T09:01:18;3.90;1.00
13850;DHT22;6995;52.618;13.488;2022-12-07T09:03:44;4.00;1.00
13850;DHT22;6995;52.618;13.488;2022-12-07T09:06:09;4.00;1.00
13850;DHT22;6995;52.618;13.488;2022-12-07T09:08:43;4.10;1.00
13850;DHT22;6995;52.618;13.488;2022-12-07T09:11:09;4.10;1.00
13850;DHT22;6995;52.618;13.488;2022-12-07T09:13:35;4.00;1.00
13850;DHT22;6995;52.618;13.488;2022-12-07T09:16:02;4.10;1.00
13850;DHT22;6995;52.618;13.488;2022-12-07T09:18:33;4.10;1.00
13850;DHT22;6995;52.618;13.488;2022-12-07T09:20:58;4.10;1.00
13850;DHT22;6995;52.618;13.488;2022-12-07T09:23:27;4.10;1.00
13850;DHT22;6995;52.618;13.488;2022-12-07T09:25:52;4.10;1.00
13850;DHT22;6995;52.618;13.488;2022-12-07T09:28:18;4.00;1.00
13850;DHT22;6995;52.618;13.488;2022-12-07T09:30:48;4.10;1.00
13850;DHT22;6995;52.618;13.488;2022-12-07T09:33:31;4.10;1.00
13850;DHT22;6995;52.618;13.488;2022-12-07T09:35:58;4.10;1.00
13850;DHT22;6995;52.618;13.488;2022-12-07T09:38:24;4.10;1.00
13850;DHT22;6995;52.618;13.488;2022-12-07T09:40:53;4.10;1.00
13850;DHT22;6995;52.618;13.488;2022-12-07T09:43:24;4.10;99.90
13850;DHT22;6995;52.618;13.488;2022-12-07T09:45:55;4.00;99.90
13850;DHT22;6995;52.618;13.488;2022-12-07T09:48:29;4.10;99.90
13850;DHT22;6995;52.618;13.488;2022-12-07T09:50:57;4.00;99.90
13850;DHT22;6995;52.618;13.488;2022-12-07T09:55:59;4.00;99.90
13850;DHT22;6995;52.618;13.488;2022-12-07T09:58:27;3.90;99.90
13850;DHT22;6995;52.618;13.488;2022-12-07T10:00:57;3.90;99.90
13850;DHT22;6995;52.618;13.488;2022-12-07T10:03:28;3.80;99.90
13850;DHT22;6995;52.618;13.488;2022-12-07T10:05:54;3.80;99.90
13850;DHT22;6995;52.618;13.488;2022-12-07T10:08:21;3.80;99.90
13850;DHT22;6995;52.618;13.488;2022-12-07T10:10:53;3.70;99.90
13850;DHT22;6995;52.618;13.488;2022-12-07T10:16:00;3.90;99.90
13850;DHT22;6995;52.618;13.488;2022-12-07T10:21:12;3.80;99.90
13850;DHT22;6995;52.618;13.488;2022-12-07T10:24:05;3.80;99.90
13850;DHT22;6995;52.618;13.488;2022-12-07T10:26:36;3.70;99.90
13850;DHT22;6995;52.618;13.488;2022-12-07T10:29:31;3.60;99.90
13850;DHT22;6995;52.618;13.488;2022-12-07T10:32:21;3.70;99.90
13850;DHT22;6995;52.618;13.488;2022-12-07T10:35:25;3.70;99.90
13850;DHT22;6995;52.618;13.488;2022-12-07T10:37:57;3.70;99.90
13850;DHT22;6995;52.618;13.488;2022-12-07T10:40:31;3.70;99.90
13850;DHT22;6995;52.618;13.488;2022-12-07T10:43:02;3.60;99.90
13850;DHT22;6995;52.618;13.488;2022-12-07T10:45:28;3.60;99.90
13850;DHT22;6995;52.618;13.488;2022-12-07T10:50:54;3.70;99.90
13850;DHT22;6995;52.618;13.488;2022-12-07T10:53:40;3.70;99.90
13850;DHT22;6995;52.618;13.488;2022-12-07T11:04:49;4.10;99.90
13850;DHT22;6995;52.618;13.488;2022-12-07T11:10:16;4.10;99.90
13850;DHT22;6995;52.618;13.488;2022-12-07T11:19:05;4.00;99.90
13850;DHT22;6995;52.618;13.488;2022-12-07T11:24:20;3.90;99.90
13850;DHT22;6995;52.618;13.488;2022-12-07T11:33:32;3.90;99.90
13850;DHT22;6995;52.618;13.488;2022-12-07T11:38:47;4.00;99.90
13850;DHT22;6995;52.618;13.488;2022-12-07T11:41:21;3.90;99.90
13850;DHT22;6995;52.618;13.488;2022-12-07T11:46:42;3.90;99.90
13850;DHT22;6995;52.618;13.488;2022-12-07T11:49:15;3.80;99.90
13850;DHT22;6995;52.618;13.488;2022-12-07T11:51:48;3.90;99.90
13850;DHT22;6995;52.618;13.488;2022-12-07T11:54:23;3.90;99.90
13850;DHT22;6995;52.618;13.488;2022-12-07T11:56:50;4.00;99.90
13850;DHT22;6995;52.618;13.488;2022-12-07T11:59:25;4.10;99.90
13850;DHT22;6995;52.618;13.488;2022-12-07T12:04:41;4.00;99.90
13850;DHT22;6995;52.618;13.488;2022-12-07T12:07:16;4.30;99.90
13850;DHT22;6995;52.618;13.488;2022-12-07T12:09:58;4.20;99.90
13850;DHT22;6995;52.618;13.488;2022-12-07T12:15:58;4.10;99.90
13850;DHT22;6995;52.618;13.488;2022-12-07T12:18:40;4.20;99.90
13850;DHT22;6995;52.618;13.488;2022-12-07T12:21:17;4.30;99.90
13850;DHT22;6995;52.618;13.488;2022-12-07T12:24:06;4.30;99.90
13850;DHT22;6995;52.618;13.488;2022-12-07T12:26:47;4.40;99.90
13850;DHT22;6995;52.618;13.488;2022-12-07T12:29:21;4.40;99.90
13850;DHT22;6995;52.618;13.488;2022-12-07T12:32:13;4.40;99.90
13850;DHT22;6995;52.618;13.488;2022-12-07T12:35:22;4.40;99.90
13850;DHT22;6995;52.618;13.488;2022-12-07T12:38:25;4.40;99.90
13850;DHT22;6995;52.618;13.488;2022-12-07T12:40:56;4.30;99.90
13850;DHT22;6995;52.618;13.488;2022-12-07T12:43:45;4.30;99.90
13850;DHT22;6995;52.618;13.488;2022-12-07T12:54:21;4.50;99.90
13850;DHT22;6995;52.618;13.488;2022-12-07T13:00:00;4.70;99.90
13850;DHT22;6995;52.618;13.488;2022-12-07T13:02:32;4.60;99.90
13850;DHT22;6995;52.618;13.488;2022-12-07T13:07:56;4.60;99.90
13850;DHT22;6995;52.618;13.488;2022-12-07T13:15:52;4.60;99.90
13850;DHT22;6995;52.618;13.488;2022-12-07T13:23:55;4.40;99.90
13850;DHT22;6995;52.618;13.488;2022-12-07T13:26:37;4.40;99.90
13850;DHT22;6995;52.618;13.488;2022-12-07T13:29:13;4.40;99.90
13850;DHT22;6995;52.618;13.488;2022-12-07T13:31:43;4.30;99.90
13850;DHT22;6995;52.618;13.488;2022-12-07T13:34:39;4.30;99.90
13850;DHT22;6995;52.618;13.488;2022-12-07T13:37:34;4.30;99.90
13850;DHT22;6995;52.618;13.488;2022-12-07T13:40:19;4.30;99.90
13850;DHT22;6995;52.618;13.488;2022-12-07T13:42:45;4.30;99.90
13850;DHT22;6995;52.618;13.488;2022-12-07T13:48:42;4.30;99.90
13850;DHT22;6995;52.618;13.488;2022-12-07T13:51:21;4.20;99.90
13850;DHT22;6995;52.618;13.488;2022-12-07T13:54:08;4.20;99.90
13850;DHT22;6995;52.618;13.488;2022-12-07T13:56:47;4.20;99.90
13850;DHT22;6995;52.618;13.488;2022-12-07T13:59:24;4.20;99.90
13850;DHT22;6995;52.618;13.488;2022-12-07T14:01:58;4.20;99.90
13850;DHT22;6995;52.618;13.488;2022-12-07T14:04:30;4.20;99.90
13850;DHT22;6995;52.618;13.488;2022-12-07T14:07:00;4.20;99.90
13850;DHT22;6995;52.618;13.488;2022-12-07T14:09:28;4.20;99.90
13850;DHT22;6995;52.618;13.488;2022-12-07T14:11:55;4.20;99.90
13850;DHT22;6995;52.618;13.488;2022-12-07T14:14:25;4.20;99.90
13850;DHT22;6995;52.618;13.488;2022-12-07T14:17:12;4.20;99.90
13850;DHT22;6995;52.618;13.488;2022-12-07T14:27:38;4.30;99.90
13850;DHT22;6995;52.618;13.488;2022-12-07T14:30:05;4.20;99.90
13850;DHT22;6995;52.618;13.488;2022-12-07T14:32:35;4.20;99.90
13850;DHT22;6995;52.618;13.488;2022-12-07T14:35:10;4.20;99.90
13850;DHT22;6995;52.618;13.488;2022-12-07T14:37:38;4.20;99.90
13850;DHT22;6995;52.618;13.488;2022-12-07T14:40:05;4.20;99.90
13850;DHT22;6995;52.618;13.488;2022-12-07T14:42:34;4.20;99.90
13850;DHT22;6995;52.618;13.488;2022-12-07T14:45:00;4.20;99.90
13850;DHT22;6995;52.618;13.488;2022-12-07T14:47:26;4.10;99.90
13850;DHT22;6995;52.618;13.488;2022-12-07T14:49:53;4.00;99.90
13850;DHT22;6995;52.618;13.488;2022-12-07T14:52:26;3.80;1.00
13850;DHT22;6995;52.618;13.488;2022-12-07T14:54:53;3.60;1.00
13850;DHT22;6995;52.618;13.488;2022-12-07T14:57:20;3.50;1.00
13850;DHT22;6995;52.618;13.488;2022-12-07T14:59:46;3.40;1.00
13850;DHT22;6995;52.618;13.488;2022-12-07T15:02:13;3.30;1.00
13850;DHT22;6995;52.618;13.488;2022-12-07T15:04:39;3.30;1.00
13850;DHT22;6995;52.618;13.488;2022-12-07T15:07:19;3.30;1.00
13850;DHT22;6995;52.618;13.488;2022-12-07T15:09:45;3.30;1.00
13850;DHT22;6995;52.618;13.488;2022-12-07T15:12:11;3.30;1.00
13850;DHT22;6995;52.618;13.488;2022-12-07T15:14:37;3.30;1.00
13850;DHT22;6995;52.618;13.488;2022-12-07T15:17:03;3.40;1.00
13850;DHT22;6995;52.618;13.488;2022-12-07T15:19:28;3.50;1.00
13850;DHT22;6995;52.618;13.488;2022-12-07T15:21:54;3.50;1.00
13850;DHT22;6995;52.618;13.488;2022-12-07T15:24:20;3.60;1.00
13850;DHT22;6995;52.618;13.488;2022-12-07T15:26:46;3.60;1.00
13850;DHT22;6995;52.618;13.488;2022-12-07T15:29:14;3.60;1.00
13850;DHT22;6995;52.618;13.488;2022-12-07T15:31:41;3.60;1.00
13850;DHT22;6995;52.618;13.488;2022-12-07T15:34:07;3.60;1.00
13850;DHT22;6995;52.618;13.488;2022-12-07T15:36:33;3.60;1.00
13850;DHT22;6995;52.618;13.488;2022-12-07T15:38:59;3.50;1.00
13850;DHT22;6995;52.618;13.488;2022-12-07T15:41:25;3.50;1.00
13850;DHT22;6995;52.618;13.488;2022-12-07T15:43:51;3.50;1.00
13850;DHT22;6995;52.618;13.488;2022-12-07T15:46:37;3.50;1.00
13850;DHT22;6995;52.618;13.488;2022-12-07T15:49:15;3.50;1.00
13850;DHT22;6995;52.618;13.488;2022-12-07T15:51:41;3.50;1.00
13850;DHT22;6995;52.618;13.488;2022-12-07T15:54:19;3.50;1.00
13850;DHT22;6995;52.618;13.488;2022-12-07T15:56:45;3.50;1.00
13850;DHT22;6995;52.618;13.488;2022-12-07T15:59:14;3.50;1.00
13850;DHT22;6995;52.618;13.488;2022-12-07T16:01:40;3.50;1.00
13850;DHT22;6995;52.618;13.488;2022-12-07T16:04:05;3.50;1.00
13850;DHT22;6995;52.618;13.488;2022-12-07T16:06:31;3.50;1.00
13850;DHT22;6995;52.618;13.488;2022-12-07T16:08:57;3.10;1.00
13850;DHT22;6995;52.618;13.488;2022-12-07T16:11:23;2.60;1.00
13850;DHT22;6995;52.618;13.488;2022-12-07T16:13:49;2.20;1.00
13850;DHT22;6995;52.618;13.488;2022-12-07T16:16:17;1.90;1.00
13850;DHT22;6995;52.618;13.488;2022-12-07T16:18:44;1.90;1.00
13850;DHT22;6995;52.618;13.488;2022-12-07T16:21:11;1.90;1.00
13850;DHT22;6995;52.618;13.488;2022-12-07T16:23:36;1.90;1.00
13850;DHT22;6995;52.618;13.488;2022-12-07T16:26:07;1.90;1.00
13850;DHT22;6995;52.618;13.488;2022-12-07T16:28:33;1.90;1.00
13850;DHT22;6995;52.618;13.488;2022-12-07T16:31:14;2.00;1.00
13850;DHT22;6995;52.618;13.488;2022-12-07T16:33:41;2.00;1.00
13850;DHT22;6995;52.618;13.488;2022-12-07T16:36:09;2.00;1.00
13850;DHT22;6995;52.618;13.488;2022-12-07T16:38:36;2.10;1.00
13850;DHT22;6995;52.618;13.488;2022-12-07T16:41:03;2.10;1.00
13850;DHT22;6995;52.618;13.488;2022-12-07T16:43:29;2.10;1.00
13850;DHT22;6995;52.618;13.488;2022-12-07T16:45:55;2.10;1.00
13850;DHT22;6995;52.618;13.488;2022-12-07T16:48:20;2.20;1.00
13850;DHT22;6995;52.618;13.488;2022-12-07T16:50:46;2.30;1.00
13850;DHT22;6995;52.618;13.488;2022-12-07T16:53:13;2.30;1.00
13850;DHT22;6995;52.618;13.488;2022-12-07T16:55:42;2.30;1.00
13850;DHT22;6995;52.618;13.488;2022-12-07T16:58:08;2.30;1.00
13850;DHT22;6995;52.618;13.488;2022-12-07T17:00:34;2.40;1.00
13850;DHT22;6995;52.618;13.488;2022-12-07T17:03:00;2.30;1.00
13850;DHT22;6995;52.618;13.488;2022-12-07T17:05:26;2.30;1.00
13850;DHT22;6995;52.618;13.488;2022-12-07T17:07:53;2.30;1.00
13850;DHT22;6995;52.618;13.488;2022-12-07T17:10:19;2.40;1.00
13850;DHT22;6995;52.618;13.488;2022-12-07T17:12:45;2.40;1.00
13850;DHT22;6995;52.618;13.488;2022-12-07T17:15:11;2.30;1.00
13850;DHT22;6995;52.618;13.488;2022-12-07T17:17:47;2.30;1.00
13850;DHT22;6995;52.618;13.488;2022-12-07T17:20:16;2.30;1.00
13850;DHT22;6995;52.618;13.488;2022-12-07T17:22:43;2.30;1.00
13850;DHT22;6995;52.618;13.488;2022-12-07T17:25:09;2.30;1.00
13850;DHT22;6995;52.618;13.488;2022-12-07T17:27:35;2.30;1.00
13850;DHT22;6995;52.618;13.488;2022-12-07T17:30:02;2.30;1.00
13850;DHT22;6995;52.618;13.488;2022-12-07T17:32:28;2.30;1.00
13850;DHT22;6995;52.618;13.488;2022-12-07T17:34:53;2.30;1.00
13850;DHT22;6995;52.618;13.488;2022-12-07T17:37:19;2.30;1.00
13850;DHT22;6995;52.618;13.488;2022-12-07T17:39:45;2.30;1.00
13850;DHT22;6995;52.618;13.488;2022-12-07T17:42:10;2.30;1.00
13850;DHT22;6995;52.618;13.488;2022-12-07T17:44:54;2.30;1.00
13850;DHT22;6995;52.618;13.488;2022-12-07T17:47:20;2.20;1.00
13850;DHT22;6995;52.618;13.488;2022-12-07T17:49:46;2.20;1.00
13850;DHT22;6995;52.618;13.488;2022-12-07T17:52:13;2.10;1.00
13850;DHT22;6995;52.618;13.488;2022-12-07T17:54:58;2.20;1.00
13850;DHT22;6995;52.618;13.488;2022-12-07T17:57:23;2.10;1.00
13850;DHT22;6995;52.618;13.488;2022-12-07T17:59:49;2.10;1.00
13850;DHT22;6995;52.618;13.488;2022-12-07T18:02:17;2.10;1.00
13850;DHT22;6995;52.618;13.488;2022-12-07T18:04:43;2.10;1.00
13850;DHT22;6995;52.618;13.488;2022-12-07T18:07:10;2.10;1.00
13850;DHT22;6995;52.618;13.488;2022-12-07T18:09:36;2.00;1.00
13850;DHT22;6995;52.618;13.488;2022-12-07T18:12:02;2.00;1.00
13850;DHT22;6995;52.618;13.488;2022-12-07T18:14:28;2.00;1.00
13850;DHT22;6995;52.618;13.488;2022-12-07T18:16:54;2.00;1.00
13850;DHT22;6995;52.618;13.488;2022-12-07T18:19:20;2.00;1.00
13850;DHT22;6995;52.618;13.488;2022-12-07T18:21:46;1.90;1.00
13850;DHT22;6995;52.618;13.488;2022-12-07T18:24:19;1.90;1.00
13850;DHT22;6995;52.618;13.488;2022-12-07T18:26:46;1.80;1.00